Flight Track Log - Related Links

Times and Time Zones

All times are in EDT time to prevent confusion due to time zone crossing. See the ASQ4209 flight status page for this flight to view local times or setup timezone preferences in your user account.


Time Position Orientation Groundspeed Altitude Reporting Facility
EDT Latitude Longitude Course Direction KTS MPH feet Rate Location/Type
Thu 02:26:57 PM 30.4844 -91.2214 237° Southwest 237 273 3,200  Level Houston Center
Thu 02:27:59 PM 30.4781 -91.2911 264° West 218 251 5,500 2,177 Climbing Houston Center
Thu 02:29:00 PM 30.4695 -91.5193 257° West  Level FlightAware Approximate
Thu 02:29:01 PM 30.4325 -91.3603 233° Southwest 268 308 7,700  Level Houston Center
Thu 02:30:00 PM 30.4501 -91.6163 257° West  Level FlightAware Approximate
Thu 02:30:03 PM 30.4092 -91.4431 252° West 276 318 10,000  Level Houston Center
Thu 02:31:00 PM 30.4159 -91.7052 227° Southwest  Level FlightAware Approximate
Thu 02:31:05 PM 30.3772 -91.5325 248° West 298 343 11,100  Level Houston Center
Thu 02:32:07 PM 30.3347 -91.6381 245° Southwest 355 409 12,300 1,463 Climbing Houston Center
Thu 02:33:08 PM 30.2856 -91.7606 245° Southwest 368 423 14,100 1,561 Climbing Houston Center
Thu 02:34:10 PM 30.2422 -91.8700 245° Southwest 373 429 15,500 1,306 Climbing Houston Center
Thu 02:35:12 PM 30.1947 -91.9875 245° Southwest 374 430 16,800 1,210 Climbing Houston Center
Thu 02:36:14 PM 30.1322 -92.0864 234° Southwest 378 435 18,000 1,210 Climbing Houston Center
Thu 02:37:16 PM 30.0681 -92.1867 234° Southwest 386 444 19,300 1,210 Climbing Houston Center
Thu 02:38:18 PM 30.0031 -92.2872 233° Southwest 390 449 20,500 1,161 Climbing Houston Center
Thu 02:39:20 PM 29.9389 -92.3931 235° Southwest 400 460 21,700 726 Climbing Houston Center
Thu 02:40:22 PM 29.8911 -92.5447 250° West 418 481 22,000 145 Climbing Houston Center
Thu 02:41:24 PM 29.8558 -92.6797 253° West 435 501 22,000  Level Houston Center
Thu 02:42:26 PM 29.8181 -92.8172 252° West 447 514 22,000  Level Houston Center
Thu 02:43:28 PM 29.7808 -92.9533 253° West 446 513 22,000  Level Houston Center
Thu 02:44:30 PM 29.7428 -93.0886 252° West 443 510 22,000  Level Houston Center
Thu 02:45:32 PM 29.7058 -93.2242 253° West 443 510 22,000  Level Houston Center
Thu 02:46:34 PM 29.6700 -93.3525 252° West 426 490 22,000  Level Houston Center
Thu 02:47:36 PM 29.6281 -93.5025 252° West 412 474 22,000  Level Houston Center
Thu 02:48:38 PM 29.5925 -93.6250 252° West 407 468 22,000  Level Houston Center
Thu 02:49:40 PM 29.5583 -93.7467 252° West 402 463 22,000 -871 Level Houston Center
Thu 02:50:42 PM 29.5233 -93.8717 252° West 408 470 20,200 -2,000 Descending Houston Center
Thu 02:51:43 PM 29.4892 -93.9897 252° West 394 453 17,900 -2,348 Descending Houston Center
Thu 02:52:37 PM 29.4594 -94.1025 253° West 360 414 15,700 -2,374 Descending Houston Center
Thu 02:53:14 PM 29.4667 -94.1739 277° West 345 397 14,300 -1,886 Descending Houston Center
Thu 02:53:47 PM 29.4814 -94.2097 295° West 353 406 13,500 -821 Descending Houston Center
Thu 02:54:49 PM 29.5189 -94.3092 293° West 341 392 13,000 -438 Descending Houston Center
Thu 02:55:23 PM 29.5483 -94.3817 295° West 343 395 12,800 -1,010 Descending Houston Center
Thu 02:56:30 PM 29.5972 -94.4933 297° West 335 386 11,300 -1,231 Descending Houston Center
Thu 02:57:20 PM 29.6281 -94.5711 295° West 317 365 10,400 -1,129 Descending Houston Center
Thu 02:57:55 PM 29.6478 -94.6094 301° West 318 366 9,700 -1,701 Descending Houston Center
Thu 02:58:27 PM 29.6703 -94.6594 297° West 285 328 8,500 -1,839 Descending Houston Center
Thu 02:58:57 PM 29.6939 -94.6797 323° Northwest 291 335 7,800 -1,500 Descending Houston Center
Thu 02:59:59 PM 29.7475 -94.7431 314° West 281 323 6,200 -1,548 Descending Houston Center
Thu 03:00:30 PM 29.7833 -94.7847 315° West 262 302 5,400 -1,258 Descending Houston Center
Thu 03:01:01 PM 29.8100 -94.8114 319° Northwest 263 303 4,900 -968 Descending Houston Center
Thu 03:02:03 PM 29.8586 -94.8647 316° Northwest 248 285 3,900 -968 Descending Houston Center
Thu 03:03:05 PM 29.9033 -94.9150 316° Northwest 231 266 2,900 -912 Descending Houston Center
Thu 03:04:08 PM 29.9469 -94.9628 316° Northwest 224 258 2,000 -432 Descending Houston Center
Thu 03:05:10 PM 29.9778 -95.0114 306° West 211 243 2,000  Level Houston Center
Thu 03:06:12 PM 29.9775 -95.0856 270° West 200 230 2,000  Level Houston Center

Login

Don't have an account? Register now (free) for customized features, flight alerts, and more!